sensor_id;sensor_type;location;lat;lon;timestamp;temperature;humidity
29341;DHT22;16337;59.536;13.468;2023-07-22T00:02:13;9.80;99.90
29341;DHT22;16337;59.536;13.468;2023-07-22T00:04:39;9.80;99.90
29341;DHT22;16337;59.536;13.468;2023-07-22T00:07:04;9.80;99.90
29341;DHT22;16337;59.536;13.468;2023-07-22T00:09:33;9.70;99.90
29341;DHT22;16337;59.536;13.468;2023-07-22T00:11:59;9.70;99.90
29341;DHT22;16337;59.536;13.468;2023-07-22T00:14:25;9.60;99.90
29341;DHT22;16337;59.536;13.468;2023-07-22T00:16:51;9.50;99.90
29341;DHT22;16337;59.536;13.468;2023-07-22T00:19:17;9.40;99.90
29341;DHT22;16337;59.536;13.468;2023-07-22T00:21:42;9.30;99.90
29341;DHT22;16337;59.536;13.468;2023-07-22T00:24:08;9.30;99.90
29341;DHT22;16337;59.536;13.468;2023-07-22T00:26:34;9.20;99.90
29341;DHT22;16337;59.536;13.468;2023-07-22T00:29:00;9.30;99.90
29341;DHT22;16337;59.536;13.468;2023-07-22T00:31:26;9.20;99.90
29341;DHT22;16337;59.536;13.468;2023-07-22T00:33:53;9.10;99.90
29341;DHT22;16337;59.536;13.468;2023-07-22T00:36:18;9.10;99.90
29341;DHT22;16337;59.536;13.468;2023-07-22T00:38:44;9.10;99.90
29341;DHT22;16337;59.536;13.468;2023-07-22T00:41:10;9.10;99.90
29341;DHT22;16337;59.536;13.468;2023-07-22T00:43:37;9.00;99.90
29341;DHT22;16337;59.536;13.468;2023-07-22T00:46:04;9.00;99.90
29341;DHT22;16337;59.536;13.468;2023-07-22T00:48:30;8.90;99.90
29341;DHT22;16337;59.536;13.468;2023-07-22T00:50:56;8.90;99.90
29341;DHT22;16337;59.536;13.468;2023-07-22T00:53:22;8.80;99.90
29341;DHT22;16337;59.536;13.468;2023-07-22T00:55:47;8.80;99.90
29341;DHT22;16337;59.536;13.468;2023-07-22T00:58:13;8.80;99.90
29341;DHT22;16337;59.536;13.468;2023-07-22T01:00:39;8.70;99.90
29341;DHT22;16337;59.536;13.468;2023-07-22T01:03:05;8.70;99.90
29341;DHT22;16337;59.536;13.468;2023-07-22T01:05:32;8.60;99.90
29341;DHT22;16337;59.536;13.468;2023-07-22T01:07:59;8.50;99.90
29341;DHT22;16337;59.536;13.468;2023-07-22T01:10:25;8.50;99.90
29341;DHT22;16337;59.536;13.468;2023-07-22T01:12:51;8.50;99.90
29341;DHT22;16337;59.536;13.468;2023-07-22T01:15:17;8.50;99.90
29341;DHT22;16337;59.536;13.468;2023-07-22T01:17:43;8.40;99.90
29341;DHT22;16337;59.536;13.468;2023-07-22T01:20:10;8.30;99.90
29341;DHT22;16337;59.536;13.468;2023-07-22T01:22:39;8.30;99.90
29341;DHT22;16337;59.536;13.468;2023-07-22T01:25:07;8.30;99.90
29341;DHT22;16337;59.536;13.468;2023-07-22T01:27:33;8.30;99.90
29341;DHT22;16337;59.536;13.468;2023-07-22T01:29:58;8.20;99.90
29341;DHT22;16337;59.536;13.468;2023-07-22T01:32:24;8.20;99.90
29341;DHT22;16337;59.536;13.468;2023-07-22T01:34:50;8.10;99.90
29341;DHT22;16337;59.536;13.468;2023-07-22T01:37:16;8.10;99.90
29341;DHT22;16337;59.536;13.468;2023-07-22T01:39:42;8.10;99.90
29341;DHT22;16337;59.536;13.468;2023-07-22T01:42:08;8.10;99.90
29341;DHT22;16337;59.536;13.468;2023-07-22T01:44:34;8.00;99.90
29341;DHT22;16337;59.536;13.468;2023-07-22T01:47:02;8.00;99.90
29341;DHT22;16337;59.536;13.468;2023-07-22T01:49:28;8.00;99.90
29341;DHT22;16337;59.536;13.468;2023-07-22T01:51:54;7.90;99.90
29341;DHT22;16337;59.536;13.468;2023-07-22T01:54:20;7.90;99.90
29341;DHT22;16337;59.536;13.468;2023-07-22T01:56:46;7.80;99.90
29341;DHT22;16337;59.536;13.468;2023-07-22T01:59:11;7.80;99.90
29341;DHT22;16337;59.536;13.468;2023-07-22T02:01:42;7.80;99.90
29341;DHT22;16337;59.536;13.468;2023-07-22T02:04:09;7.80;99.90
29341;DHT22;16337;59.536;13.468;2023-07-22T02:06:36;7.70;99.90
29341;DHT22;16337;59.536;13.468;2023-07-22T02:09:02;7.70;99.90
29341;DHT22;16337;59.536;13.468;2023-07-22T02:11:36;7.70;99.90
29341;DHT22;16337;59.536;13.468;2023-07-22T02:14:02;7.60;99.90
29341;DHT22;16337;59.536;13.468;2023-07-22T02:16:35;7.60;99.90
29341;DHT22;16337;59.536;13.468;2023-07-22T02:19:02;7.60;99.90
29341;DHT22;16337;59.536;13.468;2023-07-22T02:21:28;7.60;99.90
29341;DHT22;16337;59.536;13.468;2023-07-22T02:23:54;7.70;99.90
29341;DHT22;16337;59.536;13.468;2023-07-22T02:26:20;7.70;99.90
29341;DHT22;16337;59.536;13.468;2023-07-22T02:28:46;7.80;99.90
29341;DHT22;16337;59.536;13.468;2023-07-22T02:31:12;7.80;99.90
29341;DHT22;16337;59.536;13.468;2023-07-22T02:33:38;7.80;99.90
29341;DHT22;16337;59.536;13.468;2023-07-22T02:36:04;7.80;99.90
29341;DHT22;16337;59.536;13.468;2023-07-22T02:38:29;7.90;99.90
29341;DHT22;16337;59.536;13.468;2023-07-22T02:41:01;7.80;99.90
29341;DHT22;16337;59.536;13.468;2023-07-22T02:43:27;7.80;99.90
29341;DHT22;16337;59.536;13.468;2023-07-22T02:45:53;7.80;99.90
29341;DHT22;16337;59.536;13.468;2023-07-22T02:48:19;7.80;99.90
29341;DHT22;16337;59.536;13.468;2023-07-22T02:50:44;7.80;99.90
29341;DHT22;16337;59.536;13.468;2023-07-22T02:53:11;7.80;99.90
29341;DHT22;16337;59.536;13.468;2023-07-22T02:55:37;7.80;99.90
29341;DHT22;16337;59.536;13.468;2023-07-22T02:58:02;7.80;99.90
29341;DHT22;16337;59.536;13.468;2023-07-22T03:00:28;7.80;99.90
29341;DHT22;16337;59.536;13.468;2023-07-22T03:02:55;7.80;99.90
29341;DHT22;16337;59.536;13.468;2023-07-22T03:05:27;7.80;99.90
29341;DHT22;16337;59.536;13.468;2023-07-22T03:07:54;7.90;99.90
29341;DHT22;16337;59.536;13.468;2023-07-22T03:10:19;7.90;99.90
29341;DHT22;16337;59.536;13.468;2023-07-22T03:12:45;8.00;99.90
29341;DHT22;16337;59.536;13.468;2023-07-22T03:15:11;8.00;99.90
29341;DHT22;16337;59.536;13.468;2023-07-22T03:17:41;8.10;99.90
29341;DHT22;16337;59.536;13.468;2023-07-22T03:20:08;8.10;99.90
29341;DHT22;16337;59.536;13.468;2023-07-22T03:22:40;8.20;99.90
29341;DHT22;16337;59.536;13.468;2023-07-22T03:25:08;8.20;99.90
29341;DHT22;16337;59.536;13.468;2023-07-22T03:27:36;8.30;99.90
29341;DHT22;16337;59.536;13.468;2023-07-22T03:30:05;8.30;99.90
29341;DHT22;16337;59.536;13.468;2023-07-22T03:32:36;8.50;99.90
29341;DHT22;16337;59.536;13.468;2023-07-22T03:35:02;8.60;99.90
29341;DHT22;16337;59.536;13.468;2023-07-22T03:37:28;8.60;99.90
29341;DHT22;16337;59.536;13.468;2023-07-22T03:39:54;8.60;99.90
29341;DHT22;16337;59.536;13.468;2023-07-22T03:42:20;8.70;99.90
29341;DHT22;16337;59.536;13.468;2023-07-22T03:44:46;8.70;99.90
29341;DHT22;16337;59.536;13.468;2023-07-22T03:47:12;8.80;99.90
29341;DHT22;16337;59.536;13.468;2023-07-22T03:49:37;8.90;99.90
29341;DHT22;16337;59.536;13.468;2023-07-22T03:52:03;8.90;99.90
29341;DHT22;16337;59.536;13.468;2023-07-22T03:54:29;9.00;99.90
29341;DHT22;16337;59.536;13.468;2023-07-22T03:56:55;9.10;99.90
29341;DHT22;16337;59.536;13.468;2023-07-22T03:59:21;9.10;99.90
29341;DHT22;16337;59.536;13.468;2023-07-22T04:01:46;9.20;99.90
29341;DHT22;16337;59.536;13.468;2023-07-22T04:04:13;9.30;99.90
29341;DHT22;16337;59.536;13.468;2023-07-22T04:06:38;9.30;99.90
29341;DHT22;16337;59.536;13.468;2023-07-22T04:09:04;9.40;99.90
29341;DHT22;16337;59.536;13.468;2023-07-22T04:11:30;9.60;99.90
29341;DHT22;16337;59.536;13.468;2023-07-22T04:13:56;9.70;99.90
29341;DHT22;16337;59.536;13.468;2023-07-22T04:16:21;9.80;99.90
29341;DHT22;16337;59.536;13.468;2023-07-22T04:18:47;9.90;99.90
29341;DHT22;16337;59.536;13.468;2023-07-22T04:21:13;10.00;99.90
29341;DHT22;16337;59.536;13.468;2023-07-22T04:23:39;10.10;99.90
29341;DHT22;16337;59.536;13.468;2023-07-22T04:26:05;10.20;99.90
29341;DHT22;16337;59.536;13.468;2023-07-22T04:28:33;10.30;99.90
29341;DHT22;16337;59.536;13.468;2023-07-22T04:30:59;10.40;99.90
29341;DHT22;16337;59.536;13.468;2023-07-22T04:33:27;10.60;99.90
29341;DHT22;16337;59.536;13.468;2023-07-22T04:35:55;10.70;99.90
29341;DHT22;16337;59.536;13.468;2023-07-22T04:38:25;10.80;99.90
29341;DHT22;16337;59.536;13.468;2023-07-22T04:40:51;11.00;99.90
29341;DHT22;16337;59.536;13.468;2023-07-22T04:43:17;11.10;99.90
29341;DHT22;16337;59.536;13.468;2023-07-22T04:45:45;11.30;99.90
29341;DHT22;16337;59.536;13.468;2023-07-22T04:48:14;11.40;99.90
29341;DHT22;16337;59.536;13.468;2023-07-22T04:50:42;11.50;99.90
29341;DHT22;16337;59.536;13.468;2023-07-22T04:53:10;11.60;99.90
29341;DHT22;16337;59.536;13.468;2023-07-22T04:55:39;11.70;99.90
29341;DHT22;16337;59.536;13.468;2023-07-22T04:58:04;11.70;99.90
29341;DHT22;16337;59.536;13.468;2023-07-22T05:00:30;11.90;99.90
29341;DHT22;16337;59.536;13.468;2023-07-22T05:02:57;12.00;99.90
29341;DHT22;16337;59.536;13.468;2023-07-22T05:05:22;12.10;99.90
29341;DHT22;16337;59.536;13.468;2023-07-22T05:07:48;12.20;99.90
29341;DHT22;16337;59.536;13.468;2023-07-22T05:10:15;12.30;99.90
29341;DHT22;16337;59.536;13.468;2023-07-22T05:12:42;12.40;99.90
29341;DHT22;16337;59.536;13.468;2023-07-22T05:15:10;12.50;99.90
29341;DHT22;16337;59.536;13.468;2023-07-22T05:17:35;12.60;99.90
29341;DHT22;16337;59.536;13.468;2023-07-22T05:20:01;12.70;99.90
29341;DHT22;16337;59.536;13.468;2023-07-22T05:22:28;12.90;99.90
29341;DHT22;16337;59.536;13.468;2023-07-22T05:24:54;13.00;99.90
29341;DHT22;16337;59.536;13.468;2023-07-22T05:27:21;13.10;99.90
29341;DHT22;16337;59.536;13.468;2023-07-22T05:29:47;13.30;99.90
29341;DHT22;16337;59.536;13.468;2023-07-22T05:32:13;13.30;99.90
29341;DHT22;16337;59.536;13.468;2023-07-22T05:34:39;13.50;99.90
29341;DHT22;16337;59.536;13.468;2023-07-22T05:37:05;13.40;99.90
29341;DHT22;16337;59.536;13.468;2023-07-22T05:39:31;13.60;99.90
29341;DHT22;16337;59.536;13.468;2023-07-22T05:41:59;13.70;99.90
29341;DHT22;16337;59.536;13.468;2023-07-22T05:44:25;13.80;99.90
29341;DHT22;16337;59.536;13.468;2023-07-22T05:46:51;13.80;99.90
29341;DHT22;16337;59.536;13.468;2023-07-22T05:49:17;13.90;99.90
29341;DHT22;16337;59.536;13.468;2023-07-22T05:51:43;14.10;99.90
29341;DHT22;16337;59.536;13.468;2023-07-22T05:54:08;14.20;99.90
29341;DHT22;16337;59.536;13.468;2023-07-22T05:56:34;14.30;99.90
29341;DHT22;16337;59.536;13.468;2023-07-22T05:59:00;14.30;99.90
29341;DHT22;16337;59.536;13.468;2023-07-22T06:01:26;14.50;99.90
29341;DHT22;16337;59.536;13.468;2023-07-22T06:03:54;14.40;99.90
29341;DHT22;16337;59.536;13.468;2023-07-22T06:06:20;14.60;99.90
29341;DHT22;16337;59.536;13.468;2023-07-22T06:08:45;14.80;99.90
29341;DHT22;16337;59.536;13.468;2023-07-22T06:11:11;15.10;99.90
29341;DHT22;16337;59.536;13.468;2023-07-22T06:13:37;15.10;99.90
29341;DHT22;16337;59.536;13.468;2023-07-22T06:16:03;15.20;99.90
29341;DHT22;16337;59.536;13.468;2023-07-22T06:18:29;15.20;99.90
29341;DHT22;16337;59.536;13.468;2023-07-22T06:20:54;15.20;99.90
29341;DHT22;16337;59.536;13.468;2023-07-22T06:23:20;15.40;99.90
29341;DHT22;16337;59.536;13.468;2023-07-22T06:25:46;15.70;99.90
29341;DHT22;16337;59.536;13.468;2023-07-22T06:28:11;15.50;99.90
29341;DHT22;16337;59.536;13.468;2023-07-22T06:30:37;15.40;99.90
29341;DHT22;16337;59.536;13.468;2023-07-22T06:33:03;15.70;99.90
29341;DHT22;16337;59.536;13.468;2023-07-22T06:35:29;15.90;99.90
29341;DHT22;16337;59.536;13.468;2023-07-22T06:37:54;16.00;99.90
29341;DHT22;16337;59.536;13.468;2023-07-22T06:40:20;16.00;99.90
29341;DHT22;16337;59.536;13.468;2023-07-22T06:42:46;16.00;99.90
29341;DHT22;16337;59.536;13.468;2023-07-22T06:45:11;16.20;99.90
29341;DHT22;16337;59.536;13.468;2023-07-22T06:47:37;16.40;99.90
29341;DHT22;16337;59.536;13.468;2023-07-22T06:50:04;16.10;99.90
29341;DHT22;16337;59.536;13.468;2023-07-22T06:52:31;16.00;99.90
29341;DHT22;16337;59.536;13.468;2023-07-22T06:54:57;15.80;99.90
29341;DHT22;16337;59.536;13.468;2023-07-22T06:57:22;15.70;99.90
29341;DHT22;16337;59.536;13.468;2023-07-22T06:59:53;15.70;99.90
29341;DHT22;16337;59.536;13.468;2023-07-22T07:02:19;15.90;99.90
29341;DHT22;16337;59.536;13.468;2023-07-22T07:04:45;16.10;99.90
29341;DHT22;16337;59.536;13.468;2023-07-22T07:07:11;16.10;99.90
29341;DHT22;16337;59.536;13.468;2023-07-22T07:09:38;16.20;99.90
29341;DHT22;16337;59.536;13.468;2023-07-22T07:12:04;16.20;99.90
29341;DHT22;16337;59.536;13.468;2023-07-22T07:14:32;16.40;99.90
29341;DHT22;16337;59.536;13.468;2023-07-22T07:16:58;16.40;99.90
29341;DHT22;16337;59.536;13.468;2023-07-22T07:19:24;16.50;99.90
29341;DHT22;16337;59.536;13.468;2023-07-22T07:21:49;17.10;99.90
29341;DHT22;16337;59.536;13.468;2023-07-22T07:24:15;17.50;99.90
29341;DHT22;16337;59.536;13.468;2023-07-22T07:26:41;17.70;99.90
29341;DHT22;16337;59.536;13.468;2023-07-22T07:29:07;17.50;99.90
29341;DHT22;16337;59.536;13.468;2023-07-22T07:31:34;17.50;99.90
29341;DHT22;16337;59.536;13.468;2023-07-22T07:34:00;17.90;99.90
29341;DHT22;16337;59.536;13.468;2023-07-22T07:36:25;18.60;99.90
29341;DHT22;16337;59.536;13.468;2023-07-22T07:38:51;18.90;99.90
29341;DHT22;16337;59.536;13.468;2023-07-22T07:41:17;18.80;99.90
29341;DHT22;16337;59.536;13.468;2023-07-22T07:43:43;18.80;99.90
29341;DHT22;16337;59.536;13.468;2023-07-22T07:46:19;19.00;99.90
29341;DHT22;16337;59.536;13.468;2023-07-22T07:48:54;19.20;99.90
29341;DHT22;16337;59.536;13.468;2023-07-22T07:51:22;19.30;99.90
29341;DHT22;16337;59.536;13.468;2023-07-22T07:53:49;19.50;99.90
29341;DHT22;16337;59.536;13.468;2023-07-22T07:56:16;20.10;99.90
29341;DHT22;16337;59.536;13.468;2023-07-22T07:58:43;20.50;99.90
29341;DHT22;16337;59.536;13.468;2023-07-22T08:01:09;20.90;99.90
29341;DHT22;16337;59.536;13.468;2023-07-22T08:03:36;21.20;99.90
29341;DHT22;16337;59.536;13.468;2023-07-22T08:06:04;21.70;99.90
29341;DHT22;16337;59.536;13.468;2023-07-22T08:08:30;21.60;99.90
29341;DHT22;16337;59.536;13.468;2023-07-22T08:13:31;21.40;99.90
29341;DHT22;16337;59.536;13.468;2023-07-22T08:15:59;21.50;99.90
29341;DHT22;16337;59.536;13.468;2023-07-22T08:18:25;20.80;99.90
29341;DHT22;16337;59.536;13.468;2023-07-22T08:20:52;20.50;99.90
29341;DHT22;16337;59.536;13.468;2023-07-22T08:23:21;19.80;99.90
29341;DHT22;16337;59.536;13.468;2023-07-22T08:25:47;19.20;99.90
29341;DHT22;16337;59.536;13.468;2023-07-22T08:28:13;18.80;99.90
29341;DHT22;16337;59.536;13.468;2023-07-22T08:30:39;18.80;99.90
29341;DHT22;16337;59.536;13.468;2023-07-22T08:33:09;18.40;99.90
29341;DHT22;16337;59.536;13.468;2023-07-22T08:35:35;18.40;99.90
29341;DHT22;16337;59.536;13.468;2023-07-22T08:38:05;18.50;99.90
29341;DHT22;16337;59.536;13.468;2023-07-22T08:40:39;18.60;99.90
29341;DHT22;16337;59.536;13.468;2023-07-22T08:43:10;19.20;99.90
29341;DHT22;16337;59.536;13.468;2023-07-22T08:45:39;19.40;99.90
29341;DHT22;16337;59.536;13.468;2023-07-22T08:48:26;19.20;99.90
29341;DHT22;16337;59.536;13.468;2023-07-22T08:51:02;19.20;99.90
29341;DHT22;16337;59.536;13.468;2023-07-22T08:53:32;19.50;99.90
29341;DHT22;16337;59.536;13.468;2023-07-22T08:56:04;19.80;99.90
29341;DHT22;16337;59.536;13.468;2023-07-22T08:58:30;20.00;99.90
29341;DHT22;16337;59.536;13.468;2023-07-22T09:00:56;20.10;99.90
29341;DHT22;16337;59.536;13.468;2023-07-22T09:03:24;20.60;99.90
29341;DHT22;16337;59.536;13.468;2023-07-22T09:05:50;20.80;99.90
29341;DHT22;16337;59.536;13.468;2023-07-22T09:08:16;21.00;99.90
29341;DHT22;16337;59.536;13.468;2023-07-22T09:10:43;21.50;99.90
29341;DHT22;16337;59.536;13.468;2023-07-22T09:13:09;21.90;99.90
29341;DHT22;16337;59.536;13.468;2023-07-22T09:15:35;22.10;99.90
29341;DHT22;16337;59.536;13.468;2023-07-22T09:18:05;22.00;99.90
29341;DHT22;16337;59.536;13.468;2023-07-22T09:20:31;22.40;99.90
29341;DHT22;16337;59.536;13.468;2023-07-22T09:22:57;22.10;99.90
29341;DHT22;16337;59.536;13.468;2023-07-22T09:25:26;21.20;99.90
29341;DHT22;16337;59.536;13.468;2023-07-22T09:27:58;20.90;99.90
29341;DHT22;16337;59.536;13.468;2023-07-22T09:30:26;20.40;99.90
29341;DHT22;16337;59.536;13.468;2023-07-22T09:32:59;20.10;99.90
29341;DHT22;16337;59.536;13.468;2023-07-22T09:35:28;19.90;99.90
29341;DHT22;16337;59.536;13.468;2023-07-22T09:37:55;19.70;99.90
29341;DHT22;16337;59.536;13.468;2023-07-22T09:40:27;19.80;99.90
29341;DHT22;16337;59.536;13.468;2023-07-22T09:43:01;19.90;99.90
29341;DHT22;16337;59.536;13.468;2023-07-22T09:45:32;20.10;99.90
29341;DHT22;16337;59.536;13.468;2023-07-22T09:47:59;20.10;99.90
29341;DHT22;16337;59.536;13.468;2023-07-22T09:50:25;20.40;99.90
29341;DHT22;16337;59.536;13.468;2023-07-22T09:53:00;20.80;99.90
29341;DHT22;16337;59.536;13.468;2023-07-22T09:55:31;20.70;99.90
29341;DHT22;16337;59.536;13.468;2023-07-22T09:57:58;20.30;99.90
29341;DHT22;16337;59.536;13.468;2023-07-22T10:00:25;20.20;99.90
29341;DHT22;16337;59.536;13.468;2023-07-22T10:02:56;19.90;99.90
29341;DHT22;16337;59.536;13.468;2023-07-22T10:05:22;19.70;99.90
29341;DHT22;16337;59.536;13.468;2023-07-22T10:07:53;19.40;99.90
29341;DHT22;16337;59.536;13.468;2023-07-22T10:12:58;18.90;99.90
29341;DHT22;16337;59.536;13.468;2023-07-22T10:15:31;18.70;99.90
29341;DHT22;16337;59.536;13.468;2023-07-22T10:18:07;18.30;99.90
29341;DHT22;16337;59.536;13.468;2023-07-22T10:20:34;18.20;99.90
29341;DHT22;16337;59.536;13.468;2023-07-22T10:23:02;18.30;99.90
29341;DHT22;16337;59.536;13.468;2023-07-22T10:25:30;18.30;99.90
29341;DHT22;16337;59.536;13.468;2023-07-22T10:27:59;18.30;99.90
29341;DHT22;16337;59.536;13.468;2023-07-22T10:30:24;18.40;99.90
29341;DHT22;16337;59.536;13.468;2023-07-22T10:32:54;18.40;99.90
29341;DHT22;16337;59.536;13.468;2023-07-22T10:35:41;18.70;99.90
29341;DHT22;16337;59.536;13.468;2023-07-22T10:38:15;19.20;99.90
29341;DHT22;16337;59.536;13.468;2023-07-22T10:40:55;19.40;99.90
29341;DHT22;16337;59.536;13.468;2023-07-22T10:43:39;19.80;99.90
29341;DHT22;16337;59.536;13.468;2023-07-22T10:46:11;19.80;99.90
29341;DHT22;16337;59.536;13.468;2023-07-22T10:48:41;19.90;99.90
29341;DHT22;16337;59.536;13.468;2023-07-22T10:51:11;19.80;99.90
29341;DHT22;16337;59.536;13.468;2023-07-22T10:53:49;19.80;99.90
29341;DHT22;16337;59.536;13.468;2023-07-22T10:56:20;19.80;99.90
29341;DHT22;16337;59.536;13.468;2023-07-22T11:06:31;18.80;99.90
29341;DHT22;16337;59.536;13.468;2023-07-22T11:08:57;18.60;99.90
29341;DHT22;16337;59.536;13.468;2023-07-22T11:11:40;18.60;99.90
29341;DHT22;16337;59.536;13.468;2023-07-22T11:14:37;18.70;99.90
29341;DHT22;16337;59.536;13.468;2023-07-22T11:17:03;18.70;99.90
29341;DHT22;16337;59.536;13.468;2023-07-22T11:19:30;18.70;99.90
29341;DHT22;16337;59.536;13.468;2023-07-22T11:21:56;18.70;99.90
29341;DHT22;16337;59.536;13.468;2023-07-22T11:24:25;18.80;99.90
29341;DHT22;16337;59.536;13.468;2023-07-22T11:26:52;18.80;99.90
29341;DHT22;16337;59.536;13.468;2023-07-22T11:29:17;18.80;99.90
29341;DHT22;16337;59.536;13.468;2023-07-22T11:31:45;18.90;99.90
29341;DHT22;16337;59.536;13.468;2023-07-22T11:34:16;18.70;99.90
29341;DHT22;16337;59.536;13.468;2023-07-22T11:36:42;19.00;99.90
29341;DHT22;16337;59.536;13.468;2023-07-22T11:39:09;19.10;99.90
29341;DHT22;16337;59.536;13.468;2023-07-22T11:41:36;19.40;99.90
29341;DHT22;16337;59.536;13.468;2023-07-22T11:44:04;19.60;99.90
29341;DHT22;16337;59.536;13.468;2023-07-22T11:46:35;19.50;99.90
29341;DHT22;16337;59.536;13.468;2023-07-22T11:49:02;19.40;99.90
29341;DHT22;16337;59.536;13.468;2023-07-22T11:51:28;19.50;99.90
29341;DHT22;16337;59.536;13.468;2023-07-22T11:53:55;19.50;99.90
29341;DHT22;16337;59.536;13.468;2023-07-22T11:56:22;19.80;99.90
29341;DHT22;16337;59.536;13.468;2023-07-22T11:58:50;20.10;99.90
29341;DHT22;16337;59.536;13.468;2023-07-22T12:01:15;20.00;99.90
29341;DHT22;16337;59.536;13.468;2023-07-22T12:03:41;19.60;99.90
29341;DHT22;16337;59.536;13.468;2023-07-22T12:06:07;19.70;99.90
29341;DHT22;16337;59.536;13.468;2023-07-22T12:08:34;19.60;99.90
29341;DHT22;16337;59.536;13.468;2023-07-22T12:11:01;19.60;99.90
29341;DHT22;16337;59.536;13.468;2023-07-22T12:13:27;20.10;99.90
29341;DHT22;16337;59.536;13.468;2023-07-22T12:16:03;20.10;99.90
29341;DHT22;16337;59.536;13.468;2023-07-22T12:18:46;20.20;99.90
29341;DHT22;16337;59.536;13.468;2023-07-22T12:21:13;20.50;99.90
29341;DHT22;16337;59.536;13.468;2023-07-22T12:23:40;20.90;99.90
29341;DHT22;16337;59.536;13.468;2023-07-22T12:26:06;21.30;99.90
29341;DHT22;16337;59.536;13.468;2023-07-22T12:28:34;21.50;99.90
29341;DHT22;16337;59.536;13.468;2023-07-22T12:31:03;22.00;99.90
29341;DHT22;16337;59.536;13.468;2023-07-22T12:33:29;22.30;99.90
29341;DHT22;16337;59.536;13.468;2023-07-22T12:35:57;23.30;99.90
29341;DHT22;16337;59.536;13.468;2023-07-22T12:38:23;24.20;99.90
29341;DHT22;16337;59.536;13.468;2023-07-22T12:40:49;25.10;99.90
29341;DHT22;16337;59.536;13.468;2023-07-22T12:43:40;25.10;99.90
29341;DHT22;16337;59.536;13.468;2023-07-22T12:46:31;25.30;99.90
29341;DHT22;16337;59.536;13.468;2023-07-22T12:48:56;24.90;99.90
29341;DHT22;16337;59.536;13.468;2023-07-22T12:51:22;23.20;99.90
29341;DHT22;16337;59.536;13.468;2023-07-22T12:53:48;22.40;99.90
29341;DHT22;16337;59.536;13.468;2023-07-22T12:56:14;22.20;99.90
29341;DHT22;16337;59.536;13.468;2023-07-22T12:58:39;22.40;99.90
29341;DHT22;16337;59.536;13.468;2023-07-22T13:01:06;22.70;99.90
29341;DHT22;16337;59.536;13.468;2023-07-22T13:03:33;22.60;99.90
29341;DHT22;16337;59.536;13.468;2023-07-22T13:06:01;22.80;99.90
29341;DHT22;16337;59.536;13.468;2023-07-22T13:08:27;22.90;99.90
29341;DHT22;16337;59.536;13.468;2023-07-22T13:14:07;22.50;99.90
29341;DHT22;16337;59.536;13.468;2023-07-22T13:16:33;22.10;99.90
29341;DHT22;16337;59.536;13.468;2023-07-22T13:18:58;21.60;99.90
29341;DHT22;16337;59.536;13.468;2023-07-22T13:21:28;21.10;99.90
29341;DHT22;16337;59.536;13.468;2023-07-22T13:23:54;20.30;99.90
29341;DHT22;16337;59.536;13.468;2023-07-22T13:26:20;20.00;99.90
29341;DHT22;16337;59.536;13.468;2023-07-22T13:28:45;19.60;99.90
29341;DHT22;16337;59.536;13.468;2023-07-22T13:31:11;19.80;99.90
29341;DHT22;16337;59.536;13.468;2023-07-22T13:33:37;20.10;99.90
29341;DHT22;16337;59.536;13.468;2023-07-22T13:36:03;20.40;99.90
29341;DHT22;16337;59.536;13.468;2023-07-22T13:38:28;20.30;99.90
29341;DHT22;16337;59.536;13.468;2023-07-22T13:40:54;20.50;99.90
29341;DHT22;16337;59.536;13.468;2023-07-22T13:43:20;20.60;99.90
29341;DHT22;16337;59.536;13.468;2023-07-22T13:45:46;20.70;99.90
29341;DHT22;16337;59.536;13.468;2023-07-22T13:48:12;21.30;99.90
29341;DHT22;16337;59.536;13.468;2023-07-22T13:50:38;22.20;99.90
29341;DHT22;16337;59.536;13.468;2023-07-22T13:53:03;23.10;99.90
29341;DHT22;16337;59.536;13.468;2023-07-22T13:55:29;23.20;99.90
29341;DHT22;16337;59.536;13.468;2023-07-22T13:57:55;22.90;99.90
29341;DHT22;16337;59.536;13.468;2023-07-22T14:00:20;22.90;99.90
29341;DHT22;16337;59.536;13.468;2023-07-22T14:02:46;23.20;99.90
29341;DHT22;16337;59.536;13.468;2023-07-22T14:05:12;23.30;99.90
29341;DHT22;16337;59.536;13.468;2023-07-22T14:07:38;23.80;99.90
29341;DHT22;16337;59.536;13.468;2023-07-22T14:10:05;24.30;99.90
29341;DHT22;16337;59.536;13.468;2023-07-22T14:12:31;24.60;99.90
29341;DHT22;16337;59.536;13.468;2023-07-22T14:14:57;24.20;99.90
29341;DHT22;16337;59.536;13.468;2023-07-22T14:17:22;24.00;99.90
29341;DHT22;16337;59.536;13.468;2023-07-22T14:19:48;24.20;99.90
29341;DHT22;16337;59.536;13.468;2023-07-22T14:22:14;23.80;99.90
29341;DHT22;16337;59.536;13.468;2023-07-22T14:24:40;24.00;99.90
29341;DHT22;16337;59.536;13.468;2023-07-22T14:27:06;24.10;99.90
29341;DHT22;16337;59.536;13.468;2023-07-22T14:29:32;23.90;99.90
29341;DHT22;16337;59.536;13.468;2023-07-22T14:31:57;24.10;99.90
29341;DHT22;16337;59.536;13.468;2023-07-22T14:34:23;24.10;99.90
29341;DHT22;16337;59.536;13.468;2023-07-22T14:36:49;23.40;99.90
29341;DHT22;16337;59.536;13.468;2023-07-22T14:39:16;23.30;99.90
29341;DHT22;16337;59.536;13.468;2023-07-22T14:41:42;22.90;99.90
29341;DHT22;16337;59.536;13.468;2023-07-22T14:44:10;23.20;99.90
29341;DHT22;16337;59.536;13.468;2023-07-22T14:46:36;23.40;99.90
29341;DHT22;16337;59.536;13.468;2023-07-22T14:49:05;23.70;99.90
29341;DHT22;16337;59.536;13.468;2023-07-22T14:51:35;23.80;99.90
29341;DHT22;16337;59.536;13.468;2023-07-22T14:54:04;23.50;99.90
29341;DHT22;16337;59.536;13.468;2023-07-22T14:56:30;23.10;99.90
29341;DHT22;16337;59.536;13.468;2023-07-22T14:58:56;22.80;99.90
29341;DHT22;16337;59.536;13.468;2023-07-22T15:01:22;22.80;99.90
29341;DHT22;16337;59.536;13.468;2023-07-22T15:03:48;22.40;99.90
29341;DHT22;16337;59.536;13.468;2023-07-22T15:06:13;22.70;99.90
29341;DHT22;16337;59.536;13.468;2023-07-22T15:08:39;23.00;99.90
29341;DHT22;16337;59.536;13.468;2023-07-22T15:11:05;23.30;99.90
29341;DHT22;16337;59.536;13.468;2023-07-22T15:13:31;23.50;99.90
29341;DHT22;16337;59.536;13.468;2023-07-22T15:16:00;23.50;99.90
29341;DHT22;16337;59.536;13.468;2023-07-22T15:18:25;23.00;99.90
29341;DHT22;16337;59.536;13.468;2023-07-22T15:21:25;22.90;99.90
29341;DHT22;16337;59.536;13.468;2023-07-22T15:24:25;22.00;99.90
29341;DHT22;16337;59.536;13.468;2023-07-22T15:29:52;22.20;99.90
29341;DHT22;16337;59.536;13.468;2023-07-22T15:32:29;22.50;99.90
29341;DHT22;16337;59.536;13.468;2023-07-22T15:34:55;22.60;99.90
29341;DHT22;16337;59.536;13.468;2023-07-22T15:37:30;22.50;99.90
29341;DHT22;16337;59.536;13.468;2023-07-22T15:40:03;22.30;99.90
29341;DHT22;16337;59.536;13.468;2023-07-22T15:43:14;22.10;99.90